Schuyler, NE (68661)

02:28 CDT le 28 août 2015 (GMT -0500)
Keating Lake | | Change Station
CLOSE
Current Station
Stations météorologiques personnelles
Location: Schuyler, NE
Altitude: 1339 ft
Stations météo à proximité

Alt. 1339 ft 41.43 °N, 97.05 °W | Updated 3 minutes ago

Pluie
Pluie
64.7 ° F
Paraît 64.7 ° F
N
3.0
Vent Variable Vent de SSE
Gusts 3.0 mph

Aujourd'hui
Haut(e) -- | Bas -- ° F
--% Risque de précip.
Hier
Haut(e) -- | Bas -- ° F
Precip. -- pouce
6:50 AM 8:08 PM
Lune gibbeuse croissante, 97% visible
Pression 29.89 pouce
Visibilité 7.0 Miles terrestres
Nuages Nuages épars 1100 ft
Nuageux 1800 ft
Couvert 6000 ft
Point de rosée 63 ° F
Humidité 95%
Précipitations 0.27 pouce
Profondeur de la couche neigeuse Non disponible.
UV 0 sur 12
Pollen 8.00 sur 12
Qualité de l'air Non disponible.
Flu Activity Non disponible.
METAR KFET 280715Z AUTO 09010G19KT 7SM TSRA SCT011 BKN018 OVC060 21/19 A2989 RMK AO2 LTG DSNT NE THRU S P0007 T02050190
Pression 29.89 pouce
Visibilité 7.0 Miles terrestres
Nuages Nuages épars 1100 ft
Nuageux 1800 ft
Couvert 6000 ft
Point de rosée 63 ° F
Humidité 95%
Précipitations 0.27 pouce
Profondeur de la couche neigeuse Non disponible.
UV 0 sur 12
Pollen 8.00 sur 12
Qualité de l'air Non disponible.
Flu Activity Non disponible.
METAR KFET 280715Z AUTO 09010G19KT 7SM TSRA SCT011 BKN018 OVC060 21/19 A2989 RMK AO2 LTG DSNT NE THRU S P0007 T02050190

10-Day Weather Forecast

×

Almanac

Astronomie

Aug. 28, 2015 Lever Coucher
Temps réel
Crépuscule civil
Crépuscule nautique
Crépuscule astronomique
Lune
Durée de lumière visible
Longueur du jour
Tomorrow will be .
, % of the Moon is Illuminated

Extrêmes aujourd'hui

State Highs State Lows

Community

WunderPhotos

Upload Photos

1,850,344 Photos téléchargées !

WunderBlogs® & News

Nearby

Qualité de l'air

  Qualité de l'air Indice de la qualité de l'air Polluant
Not available.

Épaisseur de neige

Station Depth Altitude

Activité sismique

Ville Distance Mag. Time & Date
Minimum magnitude displayed is 2.5.

Températures des eaux côtières

Lieu Température

Stations

Stations météo à proximité

Emplacement de la station Température Refroidissement éolien Point de rosée Humidité Vent Precip. Alt. Mise à jour Type